Time;durP1;ratioP1;P1;durP2;ratioP2;P2;SDS_P1;SDS_P2;PMS_P1;PMS_P2;Temp;Humidity;BMP_temperature;BMP_pressure;BME280_temperature;BME280_humidity;BME280_pressure;Samples;Min_cycle;Max_cycle;Signal;HPM_P1;HPM_P2
2023/10/18 00:02:16;;;;;;;11.15;6.57;;;;;;;8.51;84.80;101193.69;5095780;28;20024;-60
2023/10/18 00:04:43;;;;;;;8.77;6.20;;;;;;;8.55;84.79;101200.81;5096212;28;20043;-60
2023/10/18 00:07:11;;;;;;;10.10;6.05;;;;;;;8.52;84.36;101187.53;5095965;28;20502;-60
2023/10/18 00:09:48;;;;;;;10.20;6.13;;;;;;;8.55;84.64;101192.00;5096030;28;20073;-60
2023/10/18 00:12:16;;;;;;;9.77;5.97;;;;;;;8.51;84.30;101191.94;5095992;28;20035;-60
2023/10/18 00:14:45;;;;;;;10.32;6.10;;;;;;;8.46;84.57;101184.78;5095974;28;20492;-60
2023/10/18 00:17:12;;;;;;;11.43;6.03;;;;;;;8.43;84.74;101185.59;5095945;28;20478;-60
2023/10/18 00:19:39;;;;;;;10.18;6.00;;;;;;;8.39;84.94;101175.81;5095749;28;20028;-60
2023/10/18 00:22:07;;;;;;;10.50;6.03;;;;;;;8.38;84.50;101181.94;5094379;28;20470;-60
2023/10/18 00:24:32;;;;;;;8.75;6.40;;;;;;;8.34;85.13;101179.16;5094782;28;20385;-60
2023/10/18 00:26:58;;;;;;;9.18;5.90;;;;;;;8.33;84.83;101174.75;5095704;28;20111;-60
2023/10/18 00:29:25;;;;;;;8.13;6.07;;;;;;;8.29;84.96;101181.69;5095867;28;20035;-60
2023/10/18 00:31:51;;;;;;;10.45;6.20;;;;;;;8.31;84.72;101177.38;5095831;28;20032;-60
2023/10/18 00:34:17;;;;;;;12.73;6.40;;;;;;;8.26;84.51;101172.00;5095376;28;20032;-60
2023/10/18 00:36:43;;;;;;;8.45;5.75;;;;;;;8.22;85.16;101171.84;5095647;28;20032;-60
2023/10/18 00:39:20;;;;;;;9.35;5.95;;;;;;;8.20;85.84;101168.28;5095761;28;20419;-60
2023/10/18 00:41:45;;;;;;;6.95;5.50;;;;;;;8.16;85.40;101171.69;5094116;28;20036;-60
2023/10/18 00:44:11;;;;;;;9.05;6.30;;;;;;;8.20;84.87;101177.09;5095395;28;20069;-60
2023/10/18 00:46:39;;;;;;;12.02;6.30;;;;;;;8.24;84.74;101175.41;5095383;28;20106;-60
2023/10/18 00:49:13;;;;;;;9.68;6.18;;;;;;;8.22;85.06;101179.75;5095576;28;20032;-60
2023/10/18 00:51:40;;;;;;;9.32;5.50;;;;;;;8.23;84.87;101174.53;5095504;28;20385;-60
2023/10/18 00:54:10;;;;;;;8.80;5.88;;;;;;;8.23;84.67;101171.03;5095333;28;20084;-60
2023/10/18 00:56:38;;;;;;;10.90;6.22;;;;;;;8.21;84.83;101167.44;5094812;28;20474;-60
2023/10/18 00:59:07;;;;;;;10.32;5.97;;;;;;;8.19;85.33;101159.50;5094508;28;20028;-60
2023/10/18 01:01:35;;;;;;;9.70;5.88;;;;;;;8.19;84.33;101166.53;5094942;28;20064;-60
2023/10/18 01:04:05;;;;;;;10.63;5.93;;;;;;;8.18;84.99;101154.19;5094641;28;20556;-60
2023/10/18 01:06:31;;;;;;;8.43;6.00;;;;;;;8.21;84.84;101156.91;5095587;28;20039;-60
2023/10/18 01:08:58;;;;;;;9.52;6.13;;;;;;;8.20;84.91;101148.13;5094807;28;20027;-59
2023/10/18 01:11:28;;;;;;;9.82;5.85;;;;;;;8.18;84.76;101147.22;5094797;28;20054;-60
2023/10/18 01:13:59;;;;;;;8.27;5.60;;;;;;;8.18;84.53;101138.41;5095016;28;20028;-60
2023/10/18 01:16:29;;;;;;;9.43;5.97;;;;;;;8.14;84.52;101139.19;5095019;28;20066;-60
2023/10/18 01:18:55;;;;;;;7.50;5.63;;;;;;;8.09;84.49;101139.06;5094975;28;20098;-60
2023/10/18 01:21:21;;;;;;;11.20;6.38;;;;;;;8.08;84.42;101139.91;5094536;28;20021;-61
2023/10/18 01:23:53;;;;;;;8.85;6.15;;;;;;;8.03;84.71;101137.16;5094455;28;20110;-60
2023/10/18 01:26:23;;;;;;;9.15;6.03;;;;;;;8.02;85.31;101127.50;5094441;28;20020;-60
2023/10/18 01:28:51;;;;;;;20.10;6.50;;;;;;;7.97;85.41;101126.50;5094441;28;20031;-60
2023/10/18 01:31:17;;;;;;;8.18;5.78;;;;;;;7.93;85.34;101111.47;5094583;28;20024;-60
2023/10/18 01:33:47;;;;;;;10.57;6.25;;;;;;;7.84;85.76;101108.63;5094321;28;20035;-60
2023/10/18 01:36:14;;;;;;;11.50;6.20;;;;;;;7.83;86.23;101113.81;5093324;28;20119;-60
2023/10/18 01:38:51;;;;;;;8.90;6.07;;;;;;;7.81;85.75;101102.38;5094178;28;20046;-59
2023/10/18 01:41:27;;;;;;;7.97;5.72;;;;;;;7.80;86.78;101104.13;5092811;28;20169;-59
2023/10/18 01:44:10;;;;;;;8.80;5.97;;;;;;;7.82;85.89;101102.41;5094235;28;20049;-59
2023/10/18 01:46:43;;;;;;;9.40;6.10;;;;;;;7.81;85.88;101098.00;5094490;28;20462;-59
2023/10/18 01:49:13;;;;;;;8.50;6.35;;;;;;;7.81;85.76;101095.38;5094146;28;20024;-59
2023/10/18 01:51:42;;;;;;;11.15;6.75;;;;;;;7.79;85.98;101083.91;5094185;28;20076;-60
2023/10/18 01:54:12;;;;;;;9.50;6.07;;;;;;;7.78;85.75;101085.66;5093891;28;20107;-59
2023/10/18 01:56:38;;;;;;;9.68;6.53;;;;;;;7.75;85.94;101082.97;5093993;28;20463;-59
2023/10/18 01:59:08;;;;;;;8.80;6.55;;;;;;;7.72;86.25;101077.63;5093851;28;20062;-60
2023/10/18 02:01:34;;;;;;;10.20;6.18;;;;;;;7.73;86.04;101068.88;5093683;28;20152;-59
2023/10/18 02:04:00;;;;;;;11.45;6.22;;;;;;;7.73;85.79;101070.59;5093405;28;20147;-60
2023/10/18 02:06:27;;;;;;;10.88;6.68;;;;;;;7.68;86.94;101064.34;5093628;28;20028;-60
2023/10/18 02:08:54;;;;;;;9.57;6.35;;;;;;;7.65;86.40;101064.25;5093166;28;20024;-59
2023/10/18 02:11:20;;;;;;;12.18;7.05;;;;;;;7.64;86.54;101066.00;5093533;28;20035;-59
2023/10/18 02:13:45;;;;;;;8.18;6.20;;;;;;;7.60;86.37;101056.25;5093824;28;20028;-59
2023/10/18 02:16:19;;;;;;;9.43;6.70;;;;;;;7.59;87.23;101054.47;5093775;28;20529;-59
2023/10/18 02:18:48;;;;;;;9.45;6.68;;;;;;;7.55;86.86;101047.34;5093520;28;20118;-60
2023/10/18 02:21:14;;;;;;;8.77;5.97;;;;;;;7.55;86.82;101057.88;5093324;28;20462;-59
2023/10/18 02:23:39;;;;;;;12.65;6.45;;;;;;;7.49;86.53;101055.97;5093617;28;20024;-59
2023/10/18 02:26:30;;;;;;;10.90;6.35;;;;;;;7.50;87.32;101051.59;5093405;28;20548;-59
2023/10/18 02:28:56;;;;;;;10.73;6.47;;;;;;;7.50;86.83;101047.25;5093417;28;20032;-60
2023/10/18 02:31:21;;;;;;;11.88;6.45;;;;;;;7.51;87.01;101045.50;5093627;28;20043;-59
2023/10/18 02:33:53;;;;;;;8.98;6.53;;;;;;;7.51;85.96;101040.25;5092925;28;20028;-59
2023/10/18 02:36:21;;;;;;;12.55;7.05;;;;;;;7.51;86.00;101034.97;5092315;28;20062;-59
2023/10/18 02:38:50;;;;;;;8.75;5.75;;;;;;;7.49;86.08;101041.91;5093036;28;20458;-60
2023/10/18 02:41:23;;;;;;;10.90;6.10;;;;;;;7.42;86.49;101032.13;5093125;28;20050;-60
2023/10/18 02:43:50;;;;;;;9.20;6.03;;;;;;;7.42;86.87;101032.13;5093563;28;20075;-60
2023/10/18 02:46:20;;;;;;;9.25;6.60;;;;;;;7.40;86.63;101032.03;5093203;28;20032;-60
2023/10/18 02:48:47;;;;;;;10.30;6.20;;;;;;;7.43;86.51;101026.88;5093402;28;20040;-60
2023/10/18 02:51:14;;;;;;;9.52;5.97;;;;;;;7.45;86.11;101027.81;5093085;28;20032;-59
2023/10/18 02:53:40;;;;;;;10.45;6.07;;;;;;;7.45;85.78;101014.69;5093041;28;20065;-60
2023/10/18 02:56:06;;;;;;;9.52;6.57;;;;;;;7.44;86.03;101019.88;5091973;28;20036;-60
2023/10/18 02:58:33;;;;;;;11.77;6.20;;;;;;;7.43;86.29;101028.63;5091769;28;20028;-60
2023/10/18 03:01:05;;;;;;;12.70;6.20;;;;;;;7.41;86.59;101020.72;5093145;28;20032;-60
2023/10/18 03:03:32;;;;;;;10.10;6.30;;;;;;;7.42;86.79;101014.59;5092690;28;20051;-60
2023/10/18 03:06:01;;;;;;;11.43;6.45;;;;;;;7.41;85.84;101015.44;5091618;28;20165;-60
2023/10/18 03:08:28;;;;;;;11.52;6.30;;;;;;;7.37;86.47;101000.44;5093015;28;20035;-59
2023/10/18 03:10:53;;;;;;;11.98;6.28;;;;;;;7.33;86.13;101000.31;5092860;28;20377;-60
2023/10/18 03:13:23;;;;;;;9.70;5.97;;;;;;;7.31;86.57;100992.38;5092847;28;20021;-60
2023/10/18 03:18:41;;;;;;;9.30;5.93;;;;;;;7.27;87.21;100991.41;5093127;28;20040;-60
2023/10/18 03:21:07;;;;;;;8.32;6.07;;;;;;;7.26;86.47;100988.75;5092989;28;20119;-60
2023/10/18 03:23:33;;;;;;;9.65;6.28;;;;;;;7.22;86.95;100985.16;5097039;28;20370;-60
2023/10/18 03:26:07;;;;;;;9.60;6.03;;;;;;;7.22;86.60;100984.25;5097122;28;20028;-60
2023/10/18 03:28:40;;;;;;;9.82;6.00;;;;;;;7.21;86.35;100987.75;5096819;28;20051;-60
2023/10/18 03:34:09;;;;;;;;;;;;;;;7.31;86.59;100981.88;5051956;28;20464;-60
2023/10/18 03:36:48;;;;;;;11.38;6.13;;;;;;;7.28;87.20;100981.81;5096929;28;20278;-59
2023/10/18 03:39:17;;;;;;;7.97;5.72;;;;;;;7.25;85.91;100979.09;5096795;28;20043;-59
2023/10/18 03:41:49;;;;;;;9.13;6.20;;;;;;;7.22;86.37;100968.50;5096486;28;20024;-59
2023/10/18 03:44:21;;;;;;;10.10;6.25;;;;;;;7.24;86.45;100966.81;5096684;28;20064;-60
2023/10/18 03:46:49;;;;;;;11.38;5.93;;;;;;;7.22;87.25;100961.50;5096756;28;20047;-59
2023/10/18 03:49:31;;;;;;;10.25;5.78;;;;;;;7.19;86.05;100961.41;5096413;28;20023;-60
2023/10/18 03:52:01;;;;;;;9.93;6.28;;;;;;;7.16;86.48;100953.47;5096593;28;20024;-59
2023/10/18 03:54:43;;;;;;;10.50;5.63;;;;;;;7.15;86.32;100949.06;5096335;28;20024;-59
2023/10/18 03:57:11;;;;;;;10.70;5.90;;;;;;;7.11;86.56;100947.19;5096214;28;20074;-60
2023/10/18 03:59:44;;;;;;;8.48;6.05;;;;;;;7.05;87.32;100936.50;5096165;28;20482;-60
2023/10/18 04:04:48;;;;;;;9.30;6.20;;;;;;;7.04;87.81;100934.75;5096321;28;20050;-60
2023/10/18 04:07:17;;;;;;;8.20;6.15;;;;;;;7.03;87.64;100936.47;5095956;28;20028;-60
2023/10/18 04:12:27;;;;;;;9.40;6.03;;;;;;;7.10;87.90;100931.38;5095187;28;20036;-59
2023/10/18 04:14:55;;;;;;;9.48;6.63;;;;;;;7.12;87.82;100927.06;5095813;28;20538;-59
2023/10/18 04:20:07;;;;;;;12.40;6.63;;;;;;;7.07;87.23;100920.81;5095872;28;20044;-59
2023/10/18 04:22:33;;;;;;;11.45;6.40;;;;;;;7.06;87.08;100905.88;5078396;28;20071;-59
2023/10/18 04:24:58;;;;;;;8.75;6.05;;;;;;;7.08;87.03;100909.44;5095822;28;20062;-59
2023/10/18 04:27:24;;;;;;;10.55;6.72;;;;;;;7.09;87.67;100905.97;5095903;28;20415;-59
2023/10/18 04:29:50;;;;;;;11.25;6.15;;;;;;;7.08;87.10;100907.69;5095793;28;20043;-59
2023/10/18 04:32:18;;;;;;;12.02;6.07;;;;;;;7.09;87.14;100900.69;5093877;28;20032;-59
2023/10/18 04:34:46;;;;;;;14.45;6.47;;;;;;;7.04;87.10;100890.06;5095229;28;20024;-59
2023/10/18 04:37:14;;;;;;;10.77;6.70;;;;;;;7.10;86.83;100903.34;5094030;28;20020;-59
2023/10/18 04:39:40;;;;;;;11.02;6.15;;;;;;;7.08;87.33;100877.91;5094156;28;20162;-59
2023/10/18 04:42:06;;;;;;;11.60;6.43;;;;;;;7.09;86.71;100879.69;5095120;28;20489;-59
2023/10/18 04:44:36;;;;;;;12.18;6.47;;;;;;;7.07;87.31;100887.53;5095179;28;20470;-59
2023/10/18 04:47:13;;;;;;;8.55;6.10;;;;;;;7.05;87.46;100889.22;5095486;28;20063;-59
2023/10/18 04:49:39;;;;;;;13.70;6.35;;;;;;;7.04;86.72;100879.56;5095237;28;20028;-59
2023/10/18 04:52:28;;;;;;;9.25;6.03;;;;;;;7.04;87.25;100863.81;5095050;28;20031;-59
2023/10/18 04:55:08;;;;;;;10.55;6.13;;;;;;;7.03;86.29;100870.81;5094910;28;20052;-59
2023/10/18 04:57:38;;;;;;;9.63;6.03;;;;;;;7.04;86.83;100863.81;5095020;28;20047;-59
2023/10/18 05:00:24;;;;;;;10.80;5.93;;;;;;;7.01;86.63;100859.34;5095144;28;20047;-59
2023/10/18 05:02:53;;;;;;;9.82;6.60;;;;;;;7.03;86.29;100868.19;5094625;28;20465;-59
2023/10/18 05:05:20;;;;;;;10.68;6.30;;;;;;;7.02;86.77;100868.13;5094626;28;20057;-59
2023/10/18 05:07:49;;;;;;;12.50;6.82;;;;;;;7.00;87.26;100868.09;5094709;28;20063;-59
2023/10/18 05:10:14;;;;;;;10.80;6.10;;;;;;;7.00;86.10;100857.56;5093681;28;20502;-59
2023/10/18 05:12:47;;;;;;;9.57;5.82;;;;;;;6.97;87.07;100846.09;5094642;28;20028;-59
2023/10/18 05:15:17;;;;;;;10.15;6.28;;;;;;;7.01;87.14;100855.84;5093198;28;20470;-59
2023/10/18 05:17:43;;;;;;;10.75;6.47;;;;;;;7.00;86.35;100856.69;5094322;28;20032;-59
2023/10/18 05:20:21;;;;;;;11.45;6.50;;;;;;;6.98;86.50;100848.78;5094295;28;20054;-59
2023/10/18 05:22:52;;;;;;;9.90;6.20;;;;;;;6.98;86.60;100847.88;5094648;28;20443;-59
2023/10/18 05:28:00;;;;;;;8.82;6.10;;;;;;;6.96;86.69;100841.69;5094106;28;20032;-59
2023/10/18 05:30:27;;;;;;;9.95;6.05;;;;;;;6.93;87.00;100845.13;5094554;28;20032;-59
2023/10/18 05:35:26;;;;;;;11.25;6.43;;;;;;;6.93;87.02;100833.72;5094315;28;20075;-59
2023/10/18 05:38:47;;;;;;;11.13;6.03;;;;;;;6.93;86.40;100836.38;5094073;28;20031;-59
2023/10/18 05:40:56;;;;;;;11.23;6.10;;;;;;;6.92;86.50;100838.09;5089776;28;20079;-59
2023/10/18 05:45:57;;;;;;;9.48;6.00;;;;;;;6.93;86.01;100836.38;5094047;28;20466;-59
2023/10/18 05:48:23;;;;;;;9.75;5.90;;;;;;;6.90;87.04;100821.44;5093059;28;20130;-59
2023/10/18 05:50:49;;;;;;;10.25;6.28;;;;;;;6.92;86.14;100824.97;5094168;28;20223;-59
2023/10/18 05:53:18;;;;;;;9.13;5.97;;;;;;;6.93;86.15;100824.13;5092679;28;20032;-59
2023/10/18 05:55:52;;;;;;;8.73;5.80;;;;;;;6.94;86.10;100823.28;5094225;28;20025;-59
2023/10/18 05:58:25;;;;;;;9.20;6.35;;;;;;;6.92;85.69;100813.59;5094243;28;20085;-59
2023/10/18 06:00:58;;;;;;;9.15;5.70;;;;;;;6.94;86.63;100814.53;5094158;28;20028;-59
2023/10/18 06:03:26;;;;;;;9.20;5.85;;;;;;;6.93;86.01;100813.59;5093457;28;20106;-60
2023/10/18 06:05:55;;;;;;;11.77;6.20;;;;;;;6.90;85.99;100816.19;5094009;28;20428;-59
2023/10/18 06:08:22;;;;;;;11.38;6.25;;;;;;;6.88;86.18;100803.84;5093804;28;20035;-59
2023/10/18 06:11:00;;;;;;;7.50;5.35;;;;;;;6.91;86.37;100803.94;5092174;28;20024;-59
2023/10/18 06:13:27;;;;;;;7.70;5.60;;;;;;;6.93;85.58;100808.34;5093212;28;20058;-59
2023/10/18 06:15:52;;;;;;;9.25;5.85;;;;;;;6.95;85.11;100803.16;5092116;28;20105;-59
2023/10/18 06:18:25;;;;;;;8.88;6.03;;;;;;;6.98;85.54;100808.47;5091816;28;20469;-60
2023/10/18 06:20:53;;;;;;;10.60;5.85;;;;;;;6.98;85.97;100803.22;5093059;28;20028;-59
2023/10/18 06:25:49;;;;;;;8.80;5.80;;;;;;;6.98;85.11;100796.25;5093341;28;20046;-59
2023/10/18 06:28:21;;;;;;;8.02;5.63;;;;;;;6.98;85.52;100797.94;5092977;28;20024;-59
2023/10/18 06:30:54;;;;;;;9.23;5.70;;;;;;;7.00;85.24;100785.75;5093088;28;20369;-59
2023/10/18 06:33:20;;;;;;;;;;;;;;;7.04;84.69;100777.09;5093142;28;20485;-59
2023/10/18 06:35:51;;;;;;;7.63;5.32;;;;;;;6.99;85.03;100774.38;5093056;28;19953;-59
2023/10/18 06:38:24;;;;;;;11.23;6.20;;;;;;;6.99;85.41;100769.13;5092724;28;20393;-60
2023/10/18 06:41:21;;;;;;;13.40;5.55;;;;;;;6.99;85.04;100771.75;5091381;28;20028;-59
2023/10/18 06:43:49;;;;;;;10.85;6.13;;;;;;;6.98;85.13;100775.22;5092868;28;20032;-59
2023/10/18 06:46:32;;;;;;;8.27;5.20;;;;;;;7.00;85.72;100770.00;5091622;28;20035;-59
2023/10/18 06:48:59;;;;;;;9.93;6.05;;;;;;;7.05;85.49;100772.72;5092785;28;20119;-59
2023/10/18 06:51:31;;;;;;;9.25;5.32;;;;;;;7.07;84.71;100765.78;5091667;28;20107;-59
2023/10/18 06:53:58;;;;;;;9.15;5.72;;;;;;;7.09;84.16;100759.69;5091777;28;20503;-59
2023/10/18 06:56:26;;;;;;;9.55;5.80;;;;;;;7.12;84.17;100754.53;5091309;28;20351;-60
2023/10/18 06:58:52;;;;;;;9.80;5.60;;;;;;;7.15;84.44;100751.06;5092899;28;20047;-59
2023/10/18 07:01:21;;;;;;;12.40;5.82;;;;;;;7.14;84.13;100752.81;5089870;28;20035;-59
2023/10/18 07:03:47;;;;;;;9.05;5.50;;;;;;;7.16;83.87;100753.75;5087900;28;20048;-59
2023/10/18 07:06:19;;;;;;;10.05;5.38;;;;;;;7.18;84.30;100748.53;5092249;28;20119;-59
2023/10/18 07:08:45;;;;;;;9.23;5.82;;;;;;;7.22;84.03;100753.88;5092094;28;20025;-59
2023/10/18 07:11:18;;;;;;;9.88;5.57;;;;;;;7.23;84.01;100745.13;5092766;28;20028;-59
2023/10/18 07:13:48;;;;;;;9.73;5.70;;;;;;;7.25;83.67;100747.81;5092391;28;20047;-60
2023/10/18 07:16:25;;;;;;;10.38;5.72;;;;;;;7.30;83.76;100747.91;5092904;28;20063;-59
2023/10/18 07:19:04;;;;;;;9.02;5.57;;;;;;;7.32;83.79;100747.06;5095257;28;20044;-60
2023/10/18 07:21:32;;;;;;;12.55;5.32;;;;;;;7.35;82.48;100744.53;5092868;28;20038;-60
2023/10/18 07:23:58;;;;;;;8.73;5.32;;;;;;;7.40;83.33;100728.84;5105228;28;20070;-59
2023/10/18 07:26:29;;;;;;;8.80;5.10;;;;;;;7.45;83.05;100721.94;5112796;28;20042;-59
2023/10/18 07:28:54;;;;;;;8.35;5.50;;;;;;;7.50;82.89;100728.22;5112607;28;20034;-59
2023/10/18 07:31:23;;;;;;;8.75;5.65;;;;;;;7.58;82.65;100724.00;5112717;28;20392;-59
2023/10/18 07:33:50;;;;;;;9.15;5.72;;;;;;;7.66;82.74;100729.41;5112692;28;20024;-59
2023/10/18 07:36:19;;;;;;;10.20;5.57;;;;;;;7.70;82.11;100720.72;5112852;28;20116;-59
2023/10/18 07:38:49;;;;;;;12.23;5.82;;;;;;;7.75;81.50;100712.09;5112770;28;20070;-59
2023/10/18 07:41:15;;;;;;;7.80;5.25;;;;;;;7.82;80.69;100720.97;5112597;28;20074;-59
2023/10/18 07:43:44;;;;;;;8.43;5.45;;;;;;;7.85;80.74;100707.88;5104608;28;20107;-60
2023/10/18 07:46:16;;;;;;;7.95;5.57;;;;;;;7.90;80.34;100708.84;5070391;28;20025;-59
2023/10/18 07:48:47;;;;;;;8.67;5.37;;;;;;;7.97;81.11;100704.63;5078274;28;20088;-59
2023/10/18 07:51:23;;;;;;;11.27;5.80;;;;;;;8.03;80.42;100697.69;5089963;28;20623;-59
2023/10/18 07:53:53;;;;;;;9.63;5.65;;;;;;;8.10;80.45;100700.47;5089980;28;20074;-60
2023/10/18 07:56:29;;;;;;;14.95;5.60;;;;;;;8.16;79.55;100700.56;5092282;28;20032;-60
2023/10/18 07:59:07;;;;;;;11.27;5.72;;;;;;;8.31;79.87;100694.66;5092033;28;20437;-59
2023/10/18 08:01:51;;;;;;;9.65;5.90;;;;;;;8.41;80.17;100680.84;5091808;28;20477;-60
2023/10/18 08:04:19;;;;;;;11.95;5.45;;;;;;;8.36;78.91;100683.38;5091692;28;20443;-59
2023/10/18 08:06:49;;;;;;;9.68;5.68;;;;;;;8.40;79.06;100693.13;5093014;28;20032;-59
2023/10/18 08:09:19;;;;;;;10.23;5.47;;;;;;;8.41;78.83;100684.38;5095969;28;20036;-59
2023/10/18 08:11:45;;;;;;;9.07;5.68;;;;;;;8.44;78.37;100686.19;5095491;28;20111;-60
2023/10/18 08:14:16;;;;;;;7.88;5.45;;;;;;;8.50;79.29;100681.00;5095565;28;20024;-59
2023/10/18 08:16:43;;;;;;;9.07;6.03;;;;;;;8.59;78.46;100675.88;5095539;28;20024;-59
2023/10/18 08:19:11;;;;;;;8.68;5.40;;;;;;;8.71;78.24;100675.19;5095521;28;20028;-59
2023/10/18 08:21:38;;;;;;;13.00;6.32;;;;;;;8.86;77.12;100670.16;5095111;28;20061;-59
2023/10/18 08:24:08;;;;;;;10.55;6.13;;;;;;;9.05;76.91;100678.34;5095376;28;20024;-59
2023/10/18 08:26:47;;;;;;;11.45;5.97;;;;;;;9.36;77.31;100671.72;5095368;28;20119;-60
2023/10/18 08:29:14;;;;;;;9.57;5.65;;;;;;;9.70;74.94;100667.75;5095328;28;20031;-60
2023/10/18 08:31:39;;;;;;;13.00;5.93;;;;;;;9.97;75.05;100672.41;5095474;28;20085;-60
2023/10/18 08:34:05;;;;;;;12.65;5.80;;;;;;;10.05;73.66;100670.75;5095018;28;20031;-59
2023/10/18 08:36:34;;;;;;;11.93;5.90;;;;;;;10.04;73.47;100661.06;5095175;28;20107;-59
2023/10/18 08:39:01;;;;;;;9.90;5.70;;;;;;;9.98;73.44;100667.19;5095066;28;20024;-60
2023/10/18 08:41:36;;;;;;;8.93;5.80;;;;;;;9.83;73.33;100635.34;5095107;28;20024;-60
2023/10/18 08:44:05;;;;;;;10.52;6.15;;;;;;;9.94;73.74;100656.56;5095154;28;20089;-60
2023/10/18 08:46:39;;;;;;;9.27;5.75;;;;;;;9.92;74.48;100647.75;5095109;28;20054;-59
2023/10/18 08:49:06;;;;;;;11.70;5.97;;;;;;;9.94;73.21;100646.91;5093729;28;20425;-59
2023/10/18 08:51:33;;;;;;;11.07;6.20;;;;;;;10.11;74.01;100638.25;5095297;28;20079;-59
2023/10/18 08:54:01;;;;;;;10.57;6.00;;;;;;;10.23;73.17;100633.94;5095154;28;20482;-60
2023/10/18 08:56:32;;;;;;;8.27;5.53;;;;;;;10.32;72.36;100632.28;5094896;28;20062;-59
2023/10/18 08:58:58;;;;;;;10.73;6.20;;;;;;;10.32;73.33;100633.22;5095110;28;20047;-60
2023/10/18 09:01:25;;;;;;;7.80;5.60;;;;;;;10.28;72.49;100627.00;5094551;28;20473;-59
2023/10/18 09:03:50;;;;;;;10.93;6.10;;;;;;;10.31;73.14;100622.59;5094450;28;20052;-60
2023/10/18 09:06:30;;;;;;;13.32;6.30;;;;;;;10.40;72.36;100622.69;5094857;28;20032;-59
2023/10/18 09:09:07;;;;;;;11.60;6.13;;;;;;;10.59;72.06;100621.97;5094944;28;20039;-59
2023/10/18 09:11:36;;;;;;;8.73;5.45;;;;;;;10.77;71.35;100608.84;5094346;28;20032;-59
2023/10/18 09:14:07;;;;;;;9.75;6.20;;;;;;;10.98;71.73;100610.75;5094416;28;20032;-59
2023/10/18 09:16:40;;;;;;;9.10;5.68;;;;;;;11.23;71.64;100608.22;5094375;28;20020;-59
2023/10/18 09:19:09;;;;;;;8.63;5.78;;;;;;;11.43;70.54;100606.50;5093644;28;20020;-59
2023/10/18 09:21:56;;;;;;;8.18;5.70;;;;;;;11.49;69.30;100606.53;5093807;28;20073;-59
2023/10/18 09:24:30;;;;;;;10.45;5.85;;;;;;;11.62;68.24;100603.94;5094156;28;20161;-59
2023/10/18 09:26:57;;;;;;;8.82;5.63;;;;;;;11.76;68.66;100592.50;5094027;28;20028;-59
2023/10/18 09:29:26;;;;;;;9.18;5.70;;;;;;;11.89;67.20;100603.13;5094219;28;20489;-59
2023/10/18 09:31:54;;;;;;;9.73;5.70;;;;;;;11.94;67.78;100580.19;5094089;28;20039;-59
2023/10/18 09:34:21;;;;;;;9.27;5.90;;;;;;;12.00;67.25;100581.09;5094091;28;20057;-60
2023/10/18 09:36:56;;;;;;;9.00;5.72;;;;;;;12.15;67.00;100572.25;5093673;28;20052;-60
2023/10/18 09:39:24;;;;;;;8.63;5.50;;;;;;;12.41;67.37;100569.59;5093911;28;20521;-60
2023/10/18 09:41:49;;;;;;;12.48;5.95;;;;;;;12.55;66.19;100577.53;5093766;28;20400;-59
2023/10/18 09:44:18;;;;;;;9.45;5.60;;;;;;;12.69;65.14;100570.44;5093768;28;20020;-59
2023/10/18 09:46:48;;;;;;;11.38;5.57;;;;;;;12.83;65.42;100561.56;5094014;28;20105;-59
2023/10/18 09:49:21;;;;;;;11.10;5.97;;;;;;;13.15;64.27;100557.03;5092724;28;20028;-60
2023/10/18 09:51:53;;;;;;;9.43;6.03;;;;;;;13.30;62.66;100547.25;5092722;28;20036;-59
2023/10/18 09:54:21;;;;;;;10.27;6.15;;;;;;;13.44;62.92;100545.38;5093565;28;20427;-60
2023/10/18 09:56:49;;;;;;;9.32;5.60;;;;;;;13.53;62.05;100546.25;5093666;28;20028;-59
2023/10/18 09:59:25;;;;;;;8.35;5.20;;;;;;;13.46;61.58;100539.19;5093391;28;20043;-60
2023/10/18 10:02:00;;;;;;;11.07;6.07;;;;;;;13.72;61.78;100524.88;5092418;28;20381;-59
2023/10/18 10:04:32;;;;;;;9.80;5.20;;;;;;;13.92;61.25;100527.38;5093312;28;20090;-59
2023/10/18 10:07:27;;;;;;;14.02;5.93;;;;;;;14.05;61.61;100513.09;5093541;28;20032;-60
2023/10/18 10:09:48;;;;;;;8.23;5.85;;;;;;;14.25;61.30;100505.78;5093063;28;20044;-59
2023/10/18 10:12:18;;;;;;;10.73;5.68;;;;;;;14.25;60.10;100520.88;5093517;28;20028;-59
2023/10/18 10:14:44;;;;;;;8.98;5.70;;;;;;;14.34;59.35;100503.94;5093688;28;20073;-60
2023/10/18 10:17:18;;;;;;;10.60;5.80;;;;;;;14.50;59.34;100502.94;5093413;28;20024;-60
2023/10/18 10:19:56;;;;;;;8.73;5.28;;;;;;;14.59;59.60;100484.22;5093084;28;20028;-59
2023/10/18 10:22:25;;;;;;;11.10;5.75;;;;;;;14.88;59.39;100491.84;5093622;28;20024;-60
2023/10/18 10:25:04;;;;;;;8.80;5.40;;;;;;;15.00;59.11;100480.16;5092981;28;20473;-59
2023/10/18 10:32:48;;;;;;;11.40;5.32;;;;;;;15.05;57.31;100461.47;5093073;28;20126;-60
2023/10/18 10:35:15;;;;;;;8.00;5.45;;;;;;;15.17;58.18;100453.34;5091295;28;20032;-60
2023/10/18 10:37:47;;;;;;;15.32;6.05;;;;;;;15.08;57.93;100437.50;5093057;28;20016;-60
2023/10/18 10:40:19;;;;;;;;;;;;;;;15.03;58.30;100432.22;5093531;28;20039;-60
2023/10/18 10:42:49;;;;;;;10.85;6.10;;;;;;;14.81;57.95;100430.75;5092828;28;20361;-60
2023/10/18 10:45:43;;;;;;;11.48;5.90;;;;;;;14.80;59.23;100424.56;5092787;28;20031;-60
2023/10/18 10:51:16;;;;;;;10.98;6.20;;;;;;;14.92;59.16;100411.09;5092239;28;20447;-60
2023/10/18 10:53:45;;;;;;;8.30;6.03;;;;;;;14.78;59.78;100410.41;5092451;28;20028;-60
2023/10/18 10:56:18;;;;;;;8.25;5.95;;;;;;;14.98;60.61;100411.00;5092351;28;20016;-60
2023/10/18 10:58:47;;;;;;;9.50;6.10;;;;;;;15.11;59.46;100401.06;5092912;28;20051;-60
2023/10/18 11:01:13;;;;;;;9.85;6.22;;;;;;;15.21;58.68;100407.13;5091621;28;20054;-60
2023/10/18 11:03:54;;;;;;;10.45;6.22;;;;;;;15.26;58.76;100400.84;5092211;28;20557;-60
2023/10/18 11:06:21;;;;;;;10.63;6.20;;;;;;;15.33;58.86;100387.41;5092694;28;20477;-60
2023/10/18 11:08:47;;;;;;;11.75;6.20;;;;;;;15.34;58.63;100374.09;5092756;28;20028;-60
2023/10/18 11:11:14;;;;;;;15.32;6.28;;;;;;;15.37;58.89;100375.81;5092714;28;20035;-60
2023/10/18 11:13:41;;;;;;;9.48;6.28;;;;;;;15.40;59.54;100379.31;5092531;28;20039;-60
2023/10/18 11:16:07;;;;;;;11.60;6.22;;;;;;;15.42;58.73;100372.19;5092854;28;20035;-60
2023/10/18 11:18:34;;;;;;;11.73;5.88;;;;;;;15.41;58.00;100359.75;5092471;28;20107;-60
2023/10/18 11:21:19;;;;;;;10.75;6.32;;;;;;;15.37;58.69;100371.34;5092670;28;20028;-60
2023/10/18 11:24:01;;;;;;;10.73;7.00;;;;;;;15.55;58.73;100351.56;5092414;28;20033;-60
2023/10/18 11:26:27;;;;;;;11.38;6.32;;;;;;;15.71;59.06;100338.84;5092470;28;20129;-60
2023/10/18 11:28:59;;;;;;;12.25;6.20;;;;;;;15.91;57.78;100333.16;5092665;28;20059;-60
2023/10/18 11:31:28;;;;;;;13.50;6.35;;;;;;;15.97;57.65;100333.94;5092751;28;20024;-60
2023/10/18 11:36:19;;;;;;;10.20;6.50;;;;;;;16.04;56.53;100324.00;5092492;28;20469;-60
2023/10/18 11:41:37;;;;;;;7.88;5.50;;;;;;;16.03;57.41;100316.94;5092870;28;20393;-60
2023/10/18 11:44:06;;;;;;;10.43;5.93;;;;;;;15.95;56.16;100317.09;5096612;28;20051;-60
2023/10/18 11:46:49;;;;;;;8.98;5.78;;;;;;;15.92;56.21;100306.47;5096475;28;20062;-60
2023/10/18 11:49:19;;;;;;;7.55;5.70;;;;;;;15.84;56.24;100303.06;5096547;28;20028;-60
2023/10/18 11:51:48;;;;;;;11.70;5.97;;;;;;;15.90;56.33;100315.41;5096390;28;20028;-60
2023/10/18 11:54:31;;;;;;;10.80;6.00;;;;;;;15.92;56.86;100293.16;5096165;28;20495;-60
2023/10/18 11:56:58;;;;;;;9.25;5.65;;;;;;;16.09;57.65;100286.59;5096300;28;20028;-60
2023/10/18 11:59:25;;;;;;;8.55;5.78;;;;;;;16.18;55.75;100275.75;5096364;28;20103;-60
2023/10/18 12:01:55;;;;;;;8.15;5.45;;;;;;;16.17;55.46;100268.66;5096158;28;20016;-60
2023/10/18 12:04:27;;;;;;;10.68;5.65;;;;;;;16.17;56.28;100258.88;5095682;28;20051;-60
2023/10/18 12:06:56;;;;;;;12.23;5.50;;;;;;;16.21;55.81;100257.91;5096207;28;20050;-60
2023/10/18 12:11:48;;;;;;;8.88;5.30;;;;;;;16.26;56.69;100239.13;5094949;28;20506;-60
2023/10/18 12:14:14;;;;;;;9.02;5.65;;;;;;;16.38;57.11;100251.31;5095805;28;20107;-60
2023/10/18 12:16:41;;;;;;;9.50;5.80;;;;;;;16.50;56.04;100249.25;5095589;28;20040;-60
2023/10/18 12:19:10;;;;;;;8.80;5.43;;;;;;;16.57;55.28;100230.44;5094366;28;20107;-60
2023/10/18 12:21:36;;;;;;;10.60;5.20;;;;;;;16.61;56.19;100222.31;5095789;28;20028;-60
2023/10/18 12:24:04;;;;;;;6.97;5.22;;;;;;;16.70;54.96;100224.78;5095362;28;20497;-59